Latest Weather Observations for Williamtown

IDN60801

Issued at 8:09 pm EDT Thursday 2 April 2015 (issued every 30 minutes, with the page automatically refreshed every 10 minutes)

About weather observations | Map of weather stations | Latest weather observations for NSW | Other Formats
Station Details ID: 061078 Name: WILLIAMTOWN RAAF Lat: -32.79 Lon: 151.84 Height: 9.0 m
Data from the previous 72 hours. | See also: Recent months at Williamtown
Date/Time
EDT
Temp
°C
App
Temp
°C
Dew
Point
Rel
Hum
%
Delta-T
°C
Wind Press
QNH
hPa
Press
MSL
hPa
Rain
since 9 am
mm
Dir
 
Spd
km/h
Gust
km/h
Spd
kts
Gust
kts
02/08:00pm 22.8 24.3 19.0 79 2.4 ENE 9 13 5 7 1017.7 1017.6 0.0
02/07:30pm 22.8 24.0 19.0 79 2.4 NE 11 17 6 9 1017.2 1017.1 0.0
02/07:00pm 23.6 25.0 18.7 74 3.1 ENE 9 13 5 7 1017.1 1017.0 0.0
02/06:30pm 25.0 25.9 18.3 66 4.2 ENE 11 13 6 7 1016.9 1016.8 0.0
02/06:00pm 26.0 26.7 17.9 61 5.1 ENE 11 17 6 9 1016.7 1016.6 0.0
02/05:30pm 26.5 26.8 17.0 56 5.9 ENE 11 15 6 8 1016.6 1016.5 0.0
02/05:00pm 27.2 26.2 16.5 52 6.6 NE 17 22 9 12 1016.6 1016.5 0.0
02/04:30pm 28.0 27.5 15.8 47 7.5 ENE 13 15 7 8 1016.5 1016.4 0.0
02/04:00pm 28.1 27.6 16.9 50 7.0 E 15 19 8 10 1016.4 1016.3 0.0
02/03:30pm 28.2 29.7 14.6 43 8.2 CALM 0 0 0 0 1016.5 1016.4 0.0
02/03:00pm 29.4 29.6 14.7 40 8.9 ENE 7 13 4 7 1016.7 1016.6 0.0
02/02:00pm 28.2 27.5 14.2 42 8.4 N 11 17 6 9 1017.6 1017.5 0.0
02/01:30pm 28.0 27.2 14.1 42 8.3 NW 11 17 6 9 1018.1 1018.0 0.0
02/01:00pm 27.6 27.0 14.6 45 7.8 NW 11 17 6 9 1018.5 1018.4 0.0
02/12:30pm 26.5 26.9 16.4 53 6.2 NW 9 13 5 7 1019.0 1018.9 0.0
02/12:00pm 25.6 25.5 15.9 55 5.9 NW 11 13 6 7 1019.1 1019.0 0.0
02/11:30am 25.3 25.1 15.7 55 5.8 NW 11 15 6 8 1019.4 1019.3 0.0
02/11:00am 24.5 24.3 15.7 58 5.3 NNW 11 15 6 8 1019.8 1019.7 0.0
02/10:00am 22.5 22.1 15.3 63 4.3 NNW 11 17 6 9 1020.1 1020.0 0.0
02/09:30am 22.3 22.2 16.0 67 3.8 NNW 11 15 6 8 1020.0 1019.9 0.0
02/08:30am 19.8 21.8 16.1 79 2.2 CALM 0 0 0 0 1019.8 1019.7 0.2
02/08:00am 17.2 18.9 15.1 87 1.2 CALM 0 0 0 0 1019.4 1019.3 0.2
02/07:30am 15.4 16.7 14.2 92 0.7 CALM 0 0 0 0 1019.1 1019.0 0.2
02/07:00am 15.5 16.7 13.9 90 0.9 CALM 0 0 0 0 1018.7 1018.6 0.2
02/06:30am 15.3 14.9 14.1 92 0.7 NNE 9 9 5 5 1018.5 1018.4 0.2
02/05:30am 16.6 17.5 13.9 84 1.5 NNE 2 7 1 4 1018.1 1018.0 0.2
02/05:00am 16.9 17.1 14.1 83 1.6 WNW 6 9 3 5 1018.1 1018.0 0.2
02/04:30am 17.9 17.4 13.9 77 2.3 N 9 13 5 7 1018.0 1017.9 0.2
02/04:00am 17.9 17.0 13.7 76 2.4 NNE 11 15 6 8 1018.2 1018.1 0.2
02/03:30am 18.1 16.8 13.7 75 2.5 NNE 13 17 7 9 1018.3 1018.2 0.2
02/03:00am 18.2 16.9 13.8 75 2.5 NNE 13 15 7 8 1018.7 1018.6 0.2
02/02:30am 17.9 17.2 14.2 79 2.1 NE 11 13 6 7 1019.2 1019.1 0.2
02/02:00am 16.9 17.1 14.6 86 1.3 NE 7 9 4 5 1019.7 1019.6 0.2
02/01:30am 17.7 17.5 14.8 83 1.7 ENE 9 11 5 6 1019.9 1019.8 0.2
02/01:00am 18.6 19.8 15.0 79 2.1 NE 2 7 1 4 1020.2 1020.1 0.2
02/12:30am 19.3 19.1 14.6 74 2.7 NNE 9 9 5 5 1020.2 1020.1 0.2
02/12:00am 20.1 19.9 14.6 70 3.2 NNE 9 15 5 8 1020.5 1020.4 0.2
 
Date/Time
EDT
Temp
°C
App
Temp
°C
Dew
Point
Rel
Hum
%
Delta-T
°C
Wind Press
QNH
hPa
Press
MSL
hPa
Rain
since 9 am
mm
Dir
 
Spd
km/h
Gust
km/h
Spd
kts
Gust
kts
01/11:30pm 20.5 19.5 14.7 69 3.4 NNE 13 15 7 8 1020.4 1020.3 0.2
01/11:00pm 20.5 20.1 15.1 71 3.2 NNE 11 17 6 9 1020.6 1020.5 0.2
01/10:30pm 20.8 20.0 15.0 69 3.4 NE 13 17 7 9 1020.6 1020.5 0.2
01/10:00pm 20.2 19.2 15.6 75 2.7 NE 15 19 8 10 1020.9 1020.8 0.2
01/09:30pm 21.0 20.7 15.4 70 3.3 NE 11 15 6 8 1021.0 1020.9 0.2
01/09:00pm 21.3 20.7 15.6 70 3.4 NE 13 15 7 8 1021.0 1020.9 0.2
01/08:30pm 21.8 21.1 15.4 67 3.8 NE 13 19 7 10 1020.8 1020.7 0.2
01/08:00pm 22.4 21.4 15.7 66 4.0 NE 15 22 8 12 1020.6 1020.5 0.2
01/07:30pm 22.8 21.6 16.0 65 4.1 NE 17 26 9 14 1020.2 1020.1 0.2
01/07:00pm 23.3 22.8 16.9 67 3.9 NE 15 20 8 11 1019.8 1019.7 0.2
01/06:30pm 24.0 22.4 16.6 63 4.5 NE 20 30 11 16 1019.5 1019.4 0.2
01/06:00pm 25.2 22.1 14.4 51 6.4 NE 24 35 13 19 1019.4 1019.3 0.2
01/05:30pm 25.7 22.4 14.0 48 6.9 NE 24 35 13 19 1019.2 1019.1 0.2
01/05:00pm 26.2 24.0 14.9 49 6.8 NE 20 32 11 17 1019.5 1019.4 0.2
01/04:30pm 26.6 23.9 15.6 50 6.7 NE 24 35 13 19 1019.7 1019.6 0.2
01/04:00pm 26.8 24.8 15.4 49 6.9 NE 20 30 11 16 1019.8 1019.7 0.2
01/03:30pm 27.0 24.6 15.5 49 7.0 NE 22 32 12 17 1019.9 1019.8 0.2
01/03:00pm 26.2 23.5 15.5 51 6.5 NE 24 35 13 19 1020.4 1020.3 0.2
01/02:30pm 26.8 24.9 15.2 49 7.0 NNE 19 30 10 16 1021.0 1020.9 0.2
01/02:00pm 26.6 24.6 15.6 50 6.7 NE 20 30 11 16 1021.2 1021.1 0.2
01/01:30pm 25.5 24.0 15.4 53 6.1 NNE 17 30 9 16 1021.8 1021.7 0.2
01/01:00pm 25.8 24.1 16.3 55 5.8 NE 20 28 11 15 1022.3 1022.2 0.2
01/12:30pm 24.7 23.6 16.3 59 5.1 NNE 17 26 9 14 1023.0 1022.9 0.2
01/12:00pm 24.8 23.3 16.8 61 4.9 NNE 20 30 11 16 1023.6 1023.5 0.2
01/11:30am 23.9 23.2 17.4 67 4.0 NNE 17 26 9 14 1024.0 1023.9 0.2
01/11:00am 22.9 22.1 18.1 74 3.0 NNE 19 26 10 14 1024.6 1024.5 0.0
01/10:30am 21.9 20.7 17.5 76 2.7 NE 20 32 11 17 1024.9 1024.8 0.0
01/10:00am 21.7 21.6 17.8 78 2.4 NNE 15 19 8 10 1025.1 1025.0 0.0
01/09:30am 20.5 21.6 18.9 90 1.0 NNE 11 15 6 8 1025.2 1025.1 0.0
01/09:00am 19.0 20.3 18.5 97 0.3 ENE 9 13 5 7 1025.3 1025.2 4.2
01/08:47am 18.3 19.8 18.0 98 0.2 NE 7 11 4 6 1025.4 1025.3 4.2
01/08:43am 17.9 19.3 17.9 100 0.0 NE 7 9 4 5 1025.4 1025.3 4.2
01/08:30am 17.2 18.5 17.2 100 0.0 NE 6 7 3 4 1025.3 1025.2 4.2
01/08:26am 17.4 18.7 17.2 99 0.1 NE 6 7 3 4 1025.3 1025.2 4.2
01/08:00am 17.1 19.5 16.9 99 0.1 CALM 0 0 0 0 1025.1 1025.0 4.2
01/07:30am 16.9 19.2 16.7 99 0.1 CALM 0 0 0 0 1024.9 1024.8 4.2
01/07:19am 16.7 18.9 16.5 99 0.1 CALM 0 0 0 0 1024.8 1024.7 4.2
01/07:18am 16.7 18.9 16.5 99 0.1 CALM 0 0 0 0 1024.8 1024.7 4.2
01/07:00am 16.5 18.6 16.2 98 0.2 CALM 0 0 0 0 1024.7 1024.6 4.2
01/06:50am 16.4 18.4 16.1 98 0.2 CALM 0 0 0 0 1024.5 1024.4 4.2
01/06:30am 16.2 18.2 15.9 98 0.2 CALM 0 0 0 0 1024.4 1024.3 4.2
01/06:27am 16.1 18.1 15.9 99 0.1 CALM 0 0 0 0 1024.3 1024.2 4.2
01/06:00am 16.2 18.2 16.0 99 0.1 CALM 0 0 0 0 1023.7 1023.6 4.2
01/05:52am 16.2 18.2 15.9 98 0.2 CALM 0 0 0 0 1023.6 1023.5 4.2
01/05:30am 15.5 17.2 15.2 98 0.2 CALM 0 0 0 0 1023.4 1023.3 4.2
01/05:15am 15.0 16.5 14.6 97 0.2 CALM 0 0 0 0 1023.1 1023.0 4.2
01/05:01am 14.8 16.2 14.4 97 0.2 CALM 0 0 0 0 1022.8 1022.7 4.2
01/05:00am 14.7 16.1 14.5 99 0.1 CALM 0 0 0 0 1022.8 1022.7 4.2
01/04:57am 14.8 16.3 14.6 99 0.1 CALM 0 0 0 0 1022.8 1022.7 4.2
01/04:55am 14.9 16.4 14.7 99 0.1 CALM 0 0 0 0 1022.8 1022.7 4.2
01/04:30am 15.4 17.1 15.1 98 0.2 CALM 0 0 0 0 1022.7 1022.6 4.2
01/04:09am 15.4 17.1 15.1 98 0.2 CALM 0 0 0 0 1022.9 1022.8 4.2
01/04:00am 15.4 17.1 15.2 99 0.1 CALM 0 0 0 0 1023.3 1023.2 4.2
01/03:45am 15.6 17.3 15.3 98 0.2 CALM 0 0 0 0 1023.3 1023.2 4.2
01/03:30am 16.0 17.9 15.7 98 0.2 CALM 0 0 0 0 1023.5 1023.4 4.2
01/03:00am 16.3 18.3 16.1 99 0.1 CALM 0 0 0 0 1023.9 1023.8 4.2
01/02:30am 17.0 19.3 16.7 98 0.2 CALM 0 0 0 0 1024.2 1024.1 4.2
01/02:00am 16.6 18.8 16.4 99 0.1 CALM 0 0 0 0 1024.5 1024.4 4.2
01/01:30am 16.8 19.0 16.5 98 0.2 CALM 0 0 0 0 1024.7 1024.6 4.2
01/01:28am 16.8 19.0 16.5 98 0.2 CALM 0 0 0 0 1024.7 1024.6 4.2
01/01:11am 16.9 19.1 16.6 98 0.2 CALM 0 0 0 0 1024.8 1024.7 4.2
01/01:00am 17.2 19.5 16.7 97 0.3 CALM 0 0 0 0 1024.9 1024.8 4.2
01/12:30am 17.7 19.9 17.4 98 0.2 NE 2 7 1 4 1024.9 1024.8 4.0
01/12:29am 17.8 19.9 17.3 97 0.3 NE 2 7 1 4 1024.9 1024.8 4.0
01/12:14am 17.6 18.8 16.9 96 0.4 NE 6 13 3 7 1025.2 1025.1 4.0
01/12:00am 16.5 18.6 16.2 98 0.2 CALM 0 0 0 0 1025.0 1024.9 3.2
 
Date/Time
EDT
Temp
°C
App
Temp
°C
Dew
Point
Rel
Hum
%
Delta-T
°C
Wind Press
QNH
hPa
Press
MSL
hPa
Rain
since 9 am
mm
Dir
 
Spd
km/h
Gust
km/h
Spd
kts
Gust
kts
31/11:30pm 17.0 19.2 16.5 97 0.3 CALM 0 0 0 0 1025.0 1024.9 3.2
31/11:00pm 17.0 18.0 16.3 96 0.4 SSE 6 7 3 4 1025.0 1024.9 3.2
31/10:30pm 17.4 19.7 16.7 96 0.4 CALM 0 0 0 0 1025.0 1024.9 3.2
31/10:00pm 18.6 21.2 17.6 94 0.6 CALM 0 0 0 0 1024.9 1024.8 3.2
31/09:30pm 18.9 19.9 17.8 93 0.7 ENE 9 11 5 6 1025.0 1024.9 3.2
31/09:00pm 19.3 22.0 17.8 91 0.9 CALM 0 0 0 0 1025.0 1024.9 3.2
31/08:30pm 19.0 21.5 17.3 90 1.0 CALM 0 0 0 0 1024.9 1024.8 3.2
31/08:00pm 20.0 21.0 17.7 86 1.4 E 9 11 5 6 1024.7 1024.6 3.2
31/07:30pm 19.9 21.9 17.9 88 1.2 SE 4 9 2 5 1024.7 1024.6 3.2
31/07:00pm 20.3 21.0 17.9 86 1.5 ENE 11 15 6 8 1024.3 1024.2 3.2
31/06:30pm 20.7 20.1 17.6 82 1.9 E 17 26 9 14 1024.1 1024.0 3.2
31/06:00pm 21.8 21.9 17.4 76 2.7 ESE 13 19 7 10 1023.8 1023.7 3.2
31/05:30pm 21.5 22.4 17.6 78 2.4 SE 9 11 5 6 1023.7 1023.6 3.2
31/05:00pm 21.6 21.4 17.7 78 2.4 SE 15 19 8 10 1023.6 1023.5 2.8
31/04:30pm 21.8 21.0 16.1 70 3.4 ESE 15 17 8 9 1023.6 1023.5 2.8
31/04:00pm 21.7 21.0 17.3 76 2.7 ESE 17 20 9 11 1023.9 1023.8 2.8
31/03:30pm 22.3 21.0 17.2 73 3.1 SE 20 28 11 15 1024.0 1023.9 2.8
31/03:00pm 22.0 21.3 17.4 75 2.8 ESE 17 22 9 12 1024.0 1023.9 2.8
31/02:30pm 20.7 21.4 17.9 84 1.7 SE 11 17 6 9 1024.2 1024.1 2.8
31/02:08pm 19.7 20.9 18.2 91 0.9 E 9 13 5 7 1024.4 1024.3 2.8
31/02:03pm 19.4 20.5 18.1 92 0.8 ENE 9 13 5 7 1024.5 1024.4 2.8
31/02:00pm 19.4 20.2 18.1 92 0.8 E 11 13 6 7 1024.6 1024.5 2.8
31/01:30pm 18.7 17.1 17.5 93 0.7 E 22 28 12 15 1025.2 1025.1 2.6
31/01:25pm 18.8 17.2 17.5 92 0.8 E 22 32 12 17 1025.3 1025.2 2.4
31/01:00pm 19.0 18.2 17.2 89 1.1 NE 17 24 9 13 1025.5 1025.4 1.0
31/12:50pm 19.0 17.7 17.3 90 1.0 NE 20 28 11 15 1025.6 1025.5 0.8
31/12:30pm 21.0 20.5 16.0 73 3.0 ENE 13 17 7 9 1025.6 1025.5 0.4
31/12:00pm 21.1 19.9 15.0 68 3.6 E 15 22 8 12 1026.0 1025.9 0.4
31/11:30am 21.2 19.8 15.5 70 3.4 E 17 28 9 15 1026.1 1026.0 0.4
31/11:00am 20.9 20.1 17.1 79 2.3 E 17 20 9 11 1026.3 1026.2 0.4
31/10:30am 20.5 20.1 17.2 81 2.0 ENE 15 22 8 12 1026.4 1026.3 0.4
31/10:00am 19.7 20.0 17.9 89 1.1 ENE 13 20 7 11 1026.2 1026.1 0.4
31/09:30am 19.2 18.5 17.4 89 1.1 ENE 17 26 9 14 1026.0 1025.9 0.4
31/09:00am 19.9 21.3 17.9 88 1.2 E 7 11 4 6 1025.9 1025.8 13.2
31/08:30am 19.3 20.6 17.5 89 1.1 E 7 9 4 5 1025.6 1025.5 13.2
31/08:00am 19.2 20.1 17.6 90 1.0 NE 9 15 5 8 1025.2 1025.1 13.2
31/07:30am 19.0 19.2 17.7 92 0.8 ESE 13 17 7 9 1024.7 1024.6 13.2
31/07:25am 19.1 19.4 17.8 92 0.8 E 13 17 7 9 1024.7 1024.6 13.2
31/07:00am 19.2 19.6 18.1 93 0.7 ESE 13 19 7 10 1024.4 1024.3 13.0
31/06:48am 19.0 18.6 18.0 94 0.6 SE 17 20 9 11 1024.4 1024.3 13.0
31/06:30am 18.7 18.9 17.7 94 0.6 ESE 13 26 7 14 1024.2 1024.1 12.6
31/06:29am 18.6 19.2 17.8 95 0.5 ESE 11 26 6 14 1024.2 1024.1 12.4
31/06:19am 17.6 20.0 17.1 97 0.3 CALM 0 0 0 0 1024.2 1024.1 11.0
31/06:00am 17.2 19.6 16.9 98 0.2 CALM 0 0 0 0 1024.0 1023.9 11.0
31/05:30am 17.0 19.3 16.7 98 0.2 CALM 0 0 0 0 1023.9 1023.8 11.0
31/05:00am 16.9 19.1 16.6 98 0.2 CALM 0 0 0 0 1023.7 1023.6 11.0
31/04:30am 17.1 19.3 16.6 97 0.3 CALM 0 0 0 0 1023.8 1023.7 11.0
31/04:00am 17.2 19.5 16.7 97 0.3 CALM 0 0 0 0 1023.8 1023.7 11.0
31/03:30am 17.4 19.7 16.7 96 0.4 CALM 0 0 0 0 1023.9 1023.8 11.0
31/03:00am 17.6 19.9 16.8 95 0.5 CALM 0 0 0 0 1024.0 1023.9 11.0
31/02:30am 17.7 18.9 16.9 95 0.5 SSE 6 7 3 4 1024.1 1024.0 11.0
31/02:00am 17.5 19.8 16.8 96 0.4 CALM 0 7 0 4 1024.5 1024.4 11.0
31/01:30am 17.5 18.7 16.8 96 0.4 SSE 6 7 3 4 1024.6 1024.5 11.0
31/01:00am 17.4 18.0 16.7 96 0.4 SSW 9 11 5 6 1024.5 1024.4 11.0
31/12:30am 17.8 18.9 17.0 95 0.5 E 7 7 4 4 1024.4 1024.3 10.6
31/12:00am 17.6 18.2 16.8 95 0.5 WSW 9 11 5 6 1024.6 1024.5 10.0
 
Date/Time
EDT
Temp
°C
App
Temp
°C
Dew
Point
Rel
Hum
%
Delta-T
°C
Wind Press
QNH
hPa
Press
MSL
hPa
Rain
since 9 am
mm
Dir
 
Spd
km/h
Gust
km/h
Spd
kts
Gust
kts
30/11:30pm 17.6 18.8 16.8 95 0.5 NNW 6 7 3 4 1024.6 1024.5 9.8
30/11:00pm 17.6 18.2 16.8 95 0.5 NNW 9 11 5 6 1024.9 1024.8 9.6
30/10:30pm 17.9 18.9 16.9 94 0.6 NNE 7 9 4 5 1025.1 1025.0 9.6
30/10:00pm 18.0 18.2 16.8 93 0.7 N 11 15 6 8 1025.3 1025.2 9.2
30/09:30pm 18.5 18.1 17.2 92 0.8 NNE 15 20 8 11 1025.2 1025.1 7.8
30/09:00pm 19.0 19.3 18.0 94 0.6 NNE 13 17 7 9 1025.0 1024.9 6.4
30/08:30pm 19.3 19.6 18.0 92 0.8 NNE 13 19 7 10 1024.5 1024.4 4.6

Other Formats:

Comma delimited format used in spreadsheet applications
http://www.bom.gov.au/fwo/IDN60801/IDN60801.94776.axf

JavaScript Object Notation format (JSON) in row-major order
http://www.bom.gov.au/fwo/IDN60801/IDN60801.94776.json